Global Leader — C6SU5 — position and weather

sailwx.info

Track history (hours):
 
Tides and Currents Weather Stations Pressure Air Temp Water Temp Dewpoint Dewpoint Depression Visibility Wind Speed Wind Dir Waves Ship Positions

Global Leader

Last reported at 2018-Jun-21 00:59 UTC. Time now 2018-Jun-21 00:58 UTC.
Position N 19°08' W 096°02'.

Length 189 m; draft 8.1 m.

Type: Cargo ship. MMSI: 311475000.

Date/timePositionNaut miles runAvg speedWind from/ knotsBaromVisibWave heightAir tempDewpointWater temp
2018-Jun-21 00:59N 19°08' W 096°02'0 0.0
2018-Jun-21 00:29N 19°08' W 096°02'0 0.0
2018-Jun-20 21:17N 19°08' W 096°02'0 0.0
2018-Jun-20 20:47N 19°08' W 096°02'0 0.0
2018-Jun-20 18:26N 19°08' W 096°02'0 0.0
2018-Jun-20 17:41N 19°08' W 096°02'0 0.0
2018-Jun-20 17:17N 19°08' W 096°02'0 0.0
2018-Jun-20 15:53N 19°08' W 096°02'0 0.0
2018-Jun-20 15:29N 19°08' W 096°02'0 0.0
2018-Jun-20 14:41N 19°08' W 096°02'0 0.0
2018-Jun-20 13:17N 19°08' W 096°02'0 0.0
2018-Jun-20 12:59N 19°08' W 096°02'0 0.0
2018-Jun-20 12:23N 19°08' W 096°02'0 0.0
2018-Jun-20 10:29N 19°08' W 096°02'0 0.0
2018-Jun-20 08:59N 19°08' W 096°02'0 0.0
2018-Jun-20 05:47N 19°08' W 096°02'0 0.0
2018-Jun-20 05:23N 19°08' W 096°02'0 0.0
2018-Jun-20 04:59N 19°08' W 096°02'0 0.0
2018-Jun-20 03:59N 19°08' W 096°02'0 0.0
2018-Jun-20 02:11N 19°08' W 096°02'0 0.0
2018-Jun-20 01:03N 19°08' W 096°02'0 0.6
2018-Jun-20 01:00N 19°08' W 096°02'1 2.3
2018-Jun-20 00:28N 19°09' W 096°03'5 9.6
2018-Jun-20 00:00N 19°13' W 096°01'4 8.4
2018-Jun-19 23:29N 19°18' W 096°00'612.8
2018-Jun-19 22:59N 19°23' W 095°57'  
2018-Jun-13 09:35N 09°37' W 079°57'215.4
2018-Jun-13 09:29N 09°35' W 079°56'715.1
2018-Jun-13 09:00N 09°28' W 079°54'611.3
2018-Jun-13 08:30N 09°22' W 079°54'1 1.2
2018-Jun-13 07:59N 09°22' W 079°53'0 0.0
2018-Jun-13 07:29N 09°22' W 079°53'0 0.0
2018-Jun-13 06:59N 09°22' W 079°53'0 0.0
2018-Jun-13 06:29N 09°22' W 079°53'0 0.0
2018-Jun-13 05:59N 09°22' W 079°53'0 0.0
2018-Jun-13 05:29N 09°22' W 079°53'0 0.0
2018-Jun-13 04:59N 09°22' W 079°53'0 0.0
2018-Jun-13 04:29N 09°22' W 079°53'0 0.0
2018-Jun-13 03:59N 09°22' W 079°53'0 0.0
2018-Jun-13 03:29N 09°22' W 079°53'0 0.0
2018-Jun-13 02:59N 09°22' W 079°53'0 0.0
2018-Jun-13 02:29N 09°22' W 079°53'0 0.0
2018-Jun-13 01:59N 09°22' W 079°53'0 0.0
2018-Jun-13 01:29N 09°22' W 079°53'0 0.0
2018-Jun-13 00:59N 09°22' W 079°53'0 0.0
2018-Jun-13 00:29N 09°22' W 079°53'0 0.0
2018-Jun-12 23:58N 09°22' W 079°53'0 0.0
2018-Jun-12 23:29N 09°22' W 079°53'0 0.0
2018-Jun-12 22:59N 09°22' W 079°53'0 0.0
2018-Jun-12 22:29N 09°22' W 079°53'0 0.0
2018-Jun-12 21:59N 09°22' W 079°53'0 0.0
2018-Jun-12 21:29N 09°22' W 079°53'0 0.0
2018-Jun-12 20:59N 09°22' W 079°53'1 1.1
2018-Jun-12 20:30N 09°22' W 079°54'4 8.1
2018-Jun-12 20:00N 09°26' W 079°54'1 1.2
2018-Jun-12 19:30N 09°27' W 079°53'2 3.8
2018-Jun-12 19:00N 09°29' W 079°53'25413.9
2018-Jun-12 00:46N 10°18' W 075°40'414.8
2018-Jun-12 00:30N 10°19' W 075°36'510.0
2018-Jun-12 00:00N 10°21' W 075°32'2 3.2
2018-Jun-11 23:28N 10°22' W 075°31'0 0.0
2018-Jun-11 22:58N 10°22' W 075°31'0 0.0
2018-Jun-11 22:28N 10°22' W 075°31'0 0.0
2018-Jun-11 21:58N 10°22' W 075°31'0 0.0
2018-Jun-11 21:28N 10°22' W 075°31'0 0.0
2018-Jun-11 20:58N 10°22' W 075°31'0 0.0
2018-Jun-11 20:28N 10°22' W 075°31'0 0.0
2018-Jun-11 19:58N 10°22' W 075°31'0 0.0
2018-Jun-11 19:28N 10°22' W 075°31'0 0.0
2018-Jun-11 18:52N 10°22' W 075°31'0 0.0
2018-Jun-11 18:28N 10°22' W 075°31'0 0.0
2018-Jun-11 17:58N 10°22' W 075°31'0 0.0
2018-Jun-11 17:28N 10°22' W 075°31'0 0.0
2018-Jun-11 16:58N 10°22' W 075°31'0 0.0
2018-Jun-11 16:30N 10°22' W 075°31'0 0.4
2018-Jun-11 16:01N 10°23' W 075°31'1 2.1
2018-Jun-11 15:29N 10°22' W 075°32'1 1.3
2018-Jun-11 15:00N 10°21' W 075°32'5 9.8
2018-Jun-11 14:30N 10°19' W 075°36'2 3.0
2018-Jun-11 14:00N 10°19' W 075°37'4 6.7
2018-Jun-11 13:29N 10°20' W 075°41'  
Track history (hours):
 
Tides and Currents Weather Stations Pressure Air Temp Water Temp Dewpoint Dewpoint Depression Visibility Wind Speed Wind Dir Waves Ship Positions

Global Leader

Last reported at 2018-Jun-21 00:59 UTC. Time now 2018-Jun-21 00:58 UTC.
Position N 19°08' W 096°02'.

Length 189 m; draft 8.1 m.

Type: Cargo ship. MMSI: 311475000.

Date/timePositionNaut miles runAvg speedWind from/ knotsBaromVisibWave heightAir tempDewpointWater temp
2018-Jun-21 00:59N 19°08' W 096°02'0 0.0
2018-Jun-21 00:29N 19°08' W 096°02'0 0.0
2018-Jun-20 21:17N 19°08' W 096°02'0 0.0
2018-Jun-20 20:47N 19°08' W 096°02'0 0.0
2018-Jun-20 18:26N 19°08' W 096°02'0 0.0
2018-Jun-20 17:41N 19°08' W 096°02'0 0.0
2018-Jun-20 17:17N 19°08' W 096°02'0 0.0
2018-Jun-20 15:53N 19°08' W 096°02'0 0.0
2018-Jun-20 15:29N 19°08' W 096°02'0 0.0
2018-Jun-20 14:41N 19°08' W 096°02'0 0.0
2018-Jun-20 13:17N 19°08' W 096°02'0 0.0
2018-Jun-20 12:59N 19°08' W 096°02'0 0.0
2018-Jun-20 12:23N 19°08' W 096°02'0 0.0
2018-Jun-20 10:29N 19°08' W 096°02'0 0.0
2018-Jun-20 08:59N 19°08' W 096°02'0 0.0
2018-Jun-20 05:47N 19°08' W 096°02'0 0.0
2018-Jun-20 05:23N 19°08' W 096°02'0 0.0
2018-Jun-20 04:59N 19°08' W 096°02'0 0.0
2018-Jun-20 03:59N 19°08' W 096°02'0 0.0
2018-Jun-20 02:11N 19°08' W 096°02'0 0.0
2018-Jun-20 01:03N 19°08' W 096°02'0 0.6
2018-Jun-20 01:00N 19°08' W 096°02'1 2.3
2018-Jun-20 00:28N 19°09' W 096°03'5 9.6
2018-Jun-20 00:00N 19°13' W 096°01'4 8.4
2018-Jun-19 23:29N 19°18' W 096°00'612.8
2018-Jun-19 22:59N 19°23' W 095°57'  
2018-Jun-13 09:35N 09°37' W 079°57'215.4
2018-Jun-13 09:29N 09°35' W 079°56'715.1
2018-Jun-13 09:00N 09°28' W 079°54'611.3
2018-Jun-13 08:30N 09°22' W 079°54'1 1.2
2018-Jun-13 07:59N 09°22' W 079°53'0 0.0
2018-Jun-13 07:29N 09°22' W 079°53'0 0.0
2018-Jun-13 06:59N 09°22' W 079°53'0 0.0
2018-Jun-13 06:29N 09°22' W 079°53'0 0.0
2018-Jun-13 05:59N 09°22' W 079°53'0 0.0
2018-Jun-13 05:29N 09°22' W 079°53'0 0.0
2018-Jun-13 04:59N 09°22' W 079°53'0 0.0
2018-Jun-13 04:29N 09°22' W 079°53'0 0.0
2018-Jun-13 03:59N 09°22' W 079°53'0 0.0
2018-Jun-13 03:29N 09°22' W 079°53'0 0.0
2018-Jun-13 02:59N 09°22' W 079°53'0 0.0
2018-Jun-13 02:29N 09°22' W 079°53'0 0.0
2018-Jun-13 01:59N 09°22' W 079°53'0 0.0
2018-Jun-13 01:29N 09°22' W 079°53'0 0.0
2018-Jun-13 00:59N 09°22' W 079°53'0 0.0
2018-Jun-13 00:29N 09°22' W 079°53'0 0.0
2018-Jun-12 23:58N 09°22' W 079°53'0 0.0
2018-Jun-12 23:29N 09°22' W 079°53'0 0.0
2018-Jun-12 22:59N 09°22' W 079°53'0 0.0
2018-Jun-12 22:29N 09°22' W 079°53'0 0.0
2018-Jun-12 21:59N 09°22' W 079°53'0 0.0
2018-Jun-12 21:29N 09°22' W 079°53'0 0.0
2018-Jun-12 20:59N 09°22' W 079°53'1 1.1
2018-Jun-12 20:30N 09°22' W 079°54'4 8.1
2018-Jun-12 20:00N 09°26' W 079°54'1 1.2
2018-Jun-12 19:30N 09°27' W 079°53'2 3.8
2018-Jun-12 19:00N 09°29' W 079°53'25413.9
2018-Jun-12 00:46N 10°18' W 075°40'414.8
2018-Jun-12 00:30N 10°19' W 075°36'510.0
2018-Jun-12 00:00N 10°21' W 075°32'2 3.2
2018-Jun-11 23:28N 10°22' W 075°31'0 0.0
2018-Jun-11 22:58N 10°22' W 075°31'0 0.0
2018-Jun-11 22:28N 10°22' W 075°31'0 0.0
2018-Jun-11 21:58N 10°22' W 075°31'0 0.0
2018-Jun-11 21:28N 10°22' W 075°31'0 0.0
2018-Jun-11 20:58N 10°22' W 075°31'0 0.0
2018-Jun-11 20:28N 10°22' W 075°31'0 0.0
2018-Jun-11 19:58N 10°22' W 075°31'0 0.0
2018-Jun-11 19:28N 10°22' W 075°31'0 0.0
2018-Jun-11 18:52N 10°22' W 075°31'0 0.0
2018-Jun-11 18:28N 10°22' W 075°31'0 0.0
2018-Jun-11 17:58N 10°22' W 075°31'0 0.0
2018-Jun-11 17:28N 10°22' W 075°31'0 0.0
2018-Jun-11 16:58N 10°22' W 075°31'0 0.0
2018-Jun-11 16:30N 10°22' W 075°31'0 0.4
2018-Jun-11 16:01N 10°23' W 075°31'1 2.1
2018-Jun-11 15:29N 10°22' W 075°32'1 1.3
2018-Jun-11 15:00N 10°21' W 075°32'5 9.8
2018-Jun-11 14:30N 10°19' W 075°36'2 3.0
2018-Jun-11 14:00N 10°19' W 075°37'4 6.7
2018-Jun-11 13:29N 10°20' W 075°41'  

Dump ship's entire track history